Weather at Ben Gurion International Airport

Public forecast

Using degrees Celsius for public forecast. Weather courtesy of forecast.io.

Current aviation weather report (METAR) for Ben Gurion International Airport

Retrieved 2020/12/03 00:20 UTC (6 minutes ago):

LLBG 030020Z VRB03KT CAVOK 13/11 Q1017 NOSIG

Aviation forecast (TAF) for Ben Gurion International Airport

Retrieved 2020-12-03 00:28 UTC (0 seconds ago):

TAF LLBG 022302Z 0300/0324 VRB03KT CAVOK BECMG 0308/0310 30008KT BECMG 0315/0317 VRB03KT TX23/0311Z TN11/0304Z